Time;durP1;ratioP1;P1;durP2;ratioP2;P2;SDS_P1;SDS_P2;PMS_P1;PMS_P2;Temp;Humidity;BMP_temperature;BMP_pressure;BME280_temperature;BME280_humidity;BME280_pressure;Samples;Min_cycle;Max_cycle;Signal;HPM_P1;HPM_P2
2024/03/29 00:00:27;;;;;;;14.63;3.55;;;14.60;96.70;;;;;;5068602;28;20040;-68
2024/03/29 00:02:57;;;;;;;16.80;3.75;;;14.60;96.70;;;;;;5059245;28;20109;-69
2024/03/29 00:05:28;;;;;;;13.05;3.20;;;14.50;96.70;;;;;;5057076;28;20048;-69
2024/03/29 00:07:55;;;;;;;17.10;3.78;;;14.40;96.70;;;;;;5076551;28;20040;-68
2024/03/29 00:10:22;;;;;;;13.38;3.78;;;14.40;96.70;;;;;;5078318;28;20047;-69
2024/03/29 00:12:50;;;;;;;16.45;4.57;;;14.30;96.70;;;;;;5070280;28;20607;-68
2024/03/29 00:15:17;;;;;;;16.20;4.07;;;14.30;96.70;;;;;;5075795;28;20044;-69
2024/03/29 00:17:45;;;;;;;15.38;3.85;;;14.30;96.70;;;;;;5068099;28;20044;-68
2024/03/29 00:20:12;;;;;;;21.77;4.28;;;14.20;96.70;;;;;;5057811;28;20037;-69
2024/03/29 00:22:42;;;;;;;14.40;4.10;;;14.20;96.70;;;;;;5076738;28;20040;-68
2024/03/29 00:25:09;;;;;;;16.08;4.05;;;14.10;96.70;;;;;;5061481;28;20056;-68
2024/03/29 00:27:37;;;;;;;16.13;4.35;;;14.20;96.70;;;;;;5070943;28;20044;-67
2024/03/29 00:30:05;;;;;;;14.15;4.25;;;14.20;96.70;;;;;;5086810;28;20032;-68
2024/03/29 00:32:33;;;;;;;17.88;4.13;;;14.10;96.70;;;;;;5086122;28;20040;-68
2024/03/29 00:35:01;;;;;;;13.63;3.90;;;14.00;96.70;;;;;;5086332;28;20073;-68
2024/03/29 00:37:28;;;;;;;13.90;3.38;;;14.00;96.70;;;;;;5069498;28;20106;-68
2024/03/29 00:39:57;;;;;;;16.55;3.78;;;14.00;96.70;;;;;;5086469;28;20474;-68
2024/03/29 00:42:25;;;;;;;10.98;3.10;;;13.90;96.70;;;;;;5081237;28;20123;-69
2024/03/29 00:44:52;;;;;;;12.52;3.22;;;14.00;96.70;;;;;;5069601;28;20377;-68
2024/03/29 00:47:19;;;;;;;12.75;3.47;;;14.00;96.70;;;;;;5086308;28;20048;-68
2024/03/29 00:49:46;;;;;;;16.13;3.83;;;13.90;96.70;;;;;;5086553;28;20518;-68
2024/03/29 00:52:13;;;;;;;13.05;2.95;;;13.80;96.70;;;;;;5085935;28;20044;-68
2024/03/29 00:54:40;;;;;;;12.63;2.80;;;13.80;96.70;;;;;;5086975;28;20075;-68
2024/03/29 00:57:13;;;;;;;16.52;4.18;;;13.80;96.70;;;;;;5085324;28;20480;-68
2024/03/29 00:59:40;;;;;;;14.43;3.67;;;13.70;96.70;;;;;;5082349;28;20040;-68
2024/03/29 01:02:08;;;;;;;20.02;3.70;;;13.70;96.70;;;;;;5086018;28;20051;-69
2024/03/29 01:04:35;;;;;;;13.43;3.80;;;13.70;96.70;;;;;;5085150;28;20089;-68
2024/03/29 01:07:02;;;;;;;16.63;4.82;;;13.70;96.70;;;;;;5079974;28;20151;-68
2024/03/29 01:09:31;;;;;;;11.15;3.08;;;13.60;96.70;;;;;;5068715;28;20039;-69
2024/03/29 01:11:58;;;;;;;11.40;3.72;;;13.60;96.70;;;;;;5068999;28;20071;-69
2024/03/29 01:14:27;;;;;;;15.05;3.60;;;13.50;96.70;;;;;;5066931;28;20076;-68
2024/03/29 01:16:55;;;;;;;16.80;3.38;;;13.60;96.70;;;;;;5086064;28;20039;-67
2024/03/29 01:19:22;;;;;;;11.77;3.28;;;13.60;96.70;;;;;;5085500;28;20048;-68
2024/03/29 01:21:51;;;;;;;10.23;3.40;;;13.60;96.70;;;;;;5086762;28;20055;-68
2024/03/29 01:24:18;;;;;;;9.68;3.40;;;13.50;96.70;;;;;;5086248;28;20047;-68
2024/03/29 01:26:46;;;;;;;15.90;3.75;;;13.50;96.70;;;;;;5068932;28;20048;-68
2024/03/29 01:29:16;;;;;;;15.35;3.70;;;13.50;96.70;;;;;;5067561;28;20084;-68
2024/03/29 01:31:45;;;;;;;13.93;3.40;;;13.50;96.70;;;;;;5058064;28;20055;-68
2024/03/29 01:34:12;;;;;;;14.18;3.50;;;13.50;96.70;;;;;;5065225;28;20185;-68
2024/03/29 01:36:39;;;;;;;12.48;3.22;;;13.40;96.70;;;;;;5065479;28;20048;-68
2024/03/29 01:39:08;;;;;;;15.98;3.78;;;13.40;96.70;;;;;;5064258;28;20070;-69
2024/03/29 01:41:36;;;;;;;13.68;3.58;;;13.40;96.70;;;;;;5048290;28;20140;-68
2024/03/29 01:44:04;;;;;;;13.07;3.42;;;13.40;96.70;;;;;;5064729;28;20055;-69
2024/03/29 01:46:38;;;;;;;13.30;3.60;;;13.30;96.70;;;;;;5048028;28;20048;-69
2024/03/29 01:49:09;;;;;;;11.93;3.42;;;13.30;96.70;;;;;;5060677;28;20097;-68
2024/03/29 01:51:39;;;;;;;8.70;2.70;;;13.30;96.70;;;;;;5065119;28;20219;-69
2024/03/29 01:54:12;;;;;;;10.80;3.20;;;13.30;96.70;;;;;;5048832;28;20150;-69
2024/03/29 01:56:41;;;;;;;11.68;3.30;;;13.30;96.70;;;;;;5064902;28;20490;-68
2024/03/29 01:59:16;;;;;;;13.57;3.03;;;13.30;96.70;;;;;;5048334;28;20044;-68
2024/03/29 02:01:46;;;;;;;15.02;2.90;;;13.30;96.70;;;;;;5048641;28;20053;-68
2024/03/29 02:04:15;;;;;;;11.52;3.50;;;13.30;96.70;;;;;;5076734;28;20048;-68
2024/03/29 02:06:43;;;;;;;15.10;4.07;;;13.30;96.70;;;;;;5059308;28;20102;-68
2024/03/29 02:09:10;;;;;;;14.52;4.00;;;13.40;96.70;;;;;;5064367;28;20055;-68
2024/03/29 02:11:38;;;;;;;17.50;4.20;;;13.40;96.70;;;;;;5064836;28;20678;-68
2024/03/29 02:14:08;;;;;;;16.08;3.67;;;13.30;96.70;;;;;;5048202;28;20517;-68
2024/03/29 02:16:35;;;;;;;12.50;3.28;;;13.40;96.70;;;;;;5046876;28;20045;-68
2024/03/29 02:19:03;;;;;;;18.35;3.80;;;13.30;96.70;;;;;;5064436;28;20045;-68
2024/03/29 02:21:36;;;;;;;16.17;4.07;;;13.30;96.70;;;;;;5048263;28;20132;-68
2024/03/29 02:24:07;;;;;;;16.77;4.78;;;13.30;96.70;;;;;;5063485;28;20055;-68
2024/03/29 02:26:41;;;;;;;16.23;4.07;;;13.20;96.70;;;;;;5047897;28;20127;-68
2024/03/29 02:29:12;;;;;;;13.77;3.80;;;13.30;96.70;;;;;;5073975;28;20052;-68
2024/03/29 02:31:40;;;;;;;17.65;4.25;;;13.20;96.70;;;;;;5065102;28;20040;-68
2024/03/29 02:34:09;;;;;;;15.45;3.60;;;13.20;96.70;;;;;;5059873;28;20102;-68
2024/03/29 02:36:37;;;;;;;11.68;3.90;;;13.10;96.70;;;;;;5068148;28;20094;-68
2024/03/29 02:39:07;;;;;;;12.77;3.65;;;13.00;96.70;;;;;;5071068;28;20143;-68
2024/03/29 02:41:34;;;;;;;14.77;4.15;;;13.00;96.70;;;;;;5067321;28;20502;-67
2024/03/29 02:44:02;;;;;;;17.35;3.72;;;13.00;96.70;;;;;;5077067;28;20044;-69
2024/03/29 02:46:30;;;;;;;12.63;2.88;;;13.00;96.70;;;;;;5051687;28;20032;-68
2024/03/29 02:48:57;;;;;;;11.23;3.40;;;13.00;96.70;;;;;;5075782;28;20500;-68
2024/03/29 02:51:24;;;;;;;12.63;3.40;;;13.00;96.70;;;;;;5051906;28;20505;-69
2024/03/29 02:53:52;;;;;;;11.23;2.92;;;13.00;96.70;;;;;;5073387;28;20071;-68
2024/03/29 02:56:23;;;;;;;14.15;3.45;;;12.90;96.70;;;;;;5066729;28;20434;-68
2024/03/29 02:58:51;;;;;;;14.88;3.75;;;12.80;96.70;;;;;;5055209;28;20083;-69
2024/03/29 03:01:18;;;;;;;15.82;3.90;;;12.80;96.70;;;;;;5077022;28;20040;-69
2024/03/29 03:03:46;;;;;;;13.35;3.47;;;12.80;96.70;;;;;;5072573;28;20063;-68
2024/03/29 03:06:13;;;;;;;13.77;3.72;;;12.80;96.70;;;;;;5037695;28;20045;-68
2024/03/29 03:11:28;;;;;;;14.20;3.55;;;12.80;96.70;;;;;;5072759;28;20032;-68
2024/03/29 03:13:56;;;;;;;13.90;3.47;;;12.80;96.70;;;;;;5067406;28;20588;-67
2024/03/29 03:16:23;;;;;;;10.48;3.22;;;12.70;96.70;;;;;;5069263;28;20052;-69
2024/03/29 03:18:51;;;;;;;8.15;2.58;;;12.80;96.70;;;;;;5072982;28;20040;-68
2024/03/29 03:21:18;;;;;;;12.65;3.35;;;12.80;96.70;;;;;;5080863;28;20040;-69
2024/03/29 03:23:45;;;;;;;12.70;3.10;;;12.70;96.70;;;;;;5085861;28;20122;-68
2024/03/29 03:26:12;;;;;;;15.30;3.92;;;12.70;96.70;;;;;;5076917;28;20119;-68
2024/03/29 03:28:40;;;;;;;12.32;3.08;;;12.70;96.70;;;;;;5056559;28;20071;-68
2024/03/29 03:31:09;;;;;;;11.77;3.17;;;12.70;96.70;;;;;;5069745;28;20063;-68
2024/03/29 03:33:37;;;;;;;14.60;3.88;;;12.70;96.70;;;;;;5076014;28;20051;-68
2024/03/29 03:36:05;;;;;;;10.85;2.67;;;12.70;96.70;;;;;;5065997;28;20067;-68
2024/03/29 03:38:34;;;;;;;13.15;3.60;;;12.70;96.70;;;;;;5053492;28;20256;-68
2024/03/29 03:41:03;;;;;;;10.65;2.40;;;12.80;96.70;;;;;;5069180;28;20128;-67
2024/03/29 03:43:30;;;;;;;16.30;3.65;;;12.90;96.70;;;;;;5050878;28;20044;-68
2024/03/29 03:46:03;;;;;;;12.30;2.67;;;12.90;96.70;;;;;;5076439;28;20040;-69
2024/03/29 03:48:30;;;;;;;16.00;2.92;;;12.90;96.70;;;;;;5077280;28;20036;-67
2024/03/29 03:50:57;;;;;;;11.90;2.72;;;13.00;96.70;;;;;;5070728;28;20047;-69
2024/03/29 03:53:25;;;;;;;12.70;3.00;;;13.00;96.70;;;;;;5074336;28;20048;-69
2024/03/29 03:55:52;;;;;;;9.98;2.53;;;13.00;96.70;;;;;;5069251;28;20044;-69
2024/03/29 03:58:19;;;;;;;10.75;2.67;;;13.10;96.70;;;;;;5074467;28;20461;-68
2024/03/29 04:00:46;;;;;;;10.82;2.58;;;13.20;96.70;;;;;;5037058;28;20044;-68
2024/03/29 04:03:16;;;;;;;11.45;2.80;;;13.10;96.70;;;;;;5069849;28;20105;-69
2024/03/29 04:05:45;;;;;;;14.55;3.30;;;13.20;96.70;;;;;;5066610;28;20048;-69
2024/03/29 04:08:14;;;;;;;14.90;2.97;;;13.20;96.70;;;;;;5067799;28;20040;-67
2024/03/29 04:10:41;;;;;;;11.00;2.90;;;13.20;96.70;;;;;;5076664;28;20045;-69
2024/03/29 04:13:09;;;;;;;16.30;4.13;;;13.30;96.70;;;;;;5052439;28;20213;-68
2024/03/29 04:15:36;;;;;;;15.48;3.35;;;13.30;96.70;;;;;;5067613;28;20113;-69
2024/03/29 04:18:03;;;;;;;15.40;3.08;;;13.30;96.70;;;;;;5061630;28;20496;-68
2024/03/29 04:20:33;;;;;;;15.27;3.97;;;13.30;96.70;;;;;;5072450;28;20052;-69
2024/03/29 04:23:00;;;;;;;14.60;3.28;;;13.30;96.70;;;;;;5066854;28;20094;-69
2024/03/29 04:25:28;;;;;;;16.02;3.58;;;13.30;96.70;;;;;;5068260;28;20135;-69
2024/03/29 04:27:55;;;;;;;19.08;4.28;;;13.30;96.70;;;;;;5072284;28;20078;-69
2024/03/29 04:30:24;;;;;;;15.13;3.40;;;13.30;96.70;;;;;;5068983;28;20048;-69
2024/03/29 04:32:52;;;;;;;14.32;3.28;;;13.30;96.70;;;;;;5067356;28;20521;-68
2024/03/29 04:35:19;;;;;;;14.27;2.88;;;13.20;96.70;;;;;;5056987;28;20051;-69
2024/03/29 04:37:48;;;;;;;14.07;3.03;;;13.20;96.70;;;;;;5055685;28;20048;-69
2024/03/29 04:40:16;;;;;;;17.92;3.92;;;13.20;96.70;;;;;;5066062;28;20131;-69
2024/03/29 04:42:43;;;;;;;14.98;3.10;;;13.20;96.70;;;;;;5076655;28;20059;-68
2024/03/29 04:45:10;;;;;;;10.52;2.75;;;13.20;96.70;;;;;;5067366;28;20037;-68
2024/03/29 04:47:37;;;;;;;12.40;3.40;;;13.20;96.70;;;;;;5075882;28;20048;-68
2024/03/29 04:50:06;;;;;;;13.23;3.20;;;13.20;96.70;;;;;;5085691;28;20195;-69
2024/03/29 04:52:34;;;;;;;10.68;3.05;;;13.20;96.70;;;;;;5053285;28;20127;-68
2024/03/29 04:55:03;;;;;;;11.75;3.20;;;13.10;96.70;;;;;;5070903;28;20051;-69
2024/03/29 04:57:31;;;;;;;14.65;3.92;;;13.20;96.70;;;;;;5067726;28;20723;-68
2024/03/29 04:59:59;;;;;;;14.23;3.45;;;13.20;96.70;;;;;;5076564;28;20036;-68
2024/03/29 05:02:26;;;;;;;15.65;3.90;;;13.20;96.70;;;;;;5075597;28;20052;-68
2024/03/29 05:04:56;;;;;;;12.75;3.53;;;13.20;96.70;;;;;;5070901;28;20508;-68
2024/03/29 05:07:24;;;;;;;8.30;2.42;;;13.20;96.70;;;;;;5073440;28;20050;-69
2024/03/29 05:09:51;;;;;;;13.90;3.30;;;13.30;96.70;;;;;;5067334;28;20054;-68
2024/03/29 05:12:20;;;;;;;13.45;3.17;;;13.30;96.70;;;;;;5063432;28;20048;-68
2024/03/29 05:14:49;;;;;;;13.45;3.55;;;13.30;96.70;;;;;;5075794;28;20106;-68
2024/03/29 05:17:20;;;;;;;11.65;3.25;;;13.30;96.70;;;;;;5077671;28;20063;-68
2024/03/29 05:19:47;;;;;;;10.88;3.17;;;13.30;96.70;;;;;;5072975;28;20131;-68
2024/03/29 05:22:14;;;;;;;13.18;3.30;;;13.30;96.70;;;;;;5077019;28;20048;-68
2024/03/29 05:24:42;;;;;;;15.27;2.85;;;13.40;96.70;;;;;;5066649;28;20070;-68
2024/03/29 05:27:13;;;;;;;15.43;3.25;;;13.40;96.70;;;;;;5063780;28;20699;-68
2024/03/29 05:29:43;;;;;;;14.30;2.97;;;13.50;96.70;;;;;;5071266;28;20051;-68
2024/03/29 05:32:10;;;;;;;15.15;3.60;;;13.50;96.70;;;;;;5089049;28;20043;-67
2024/03/29 05:34:37;;;;;;;13.05;3.28;;;13.50;96.70;;;;;;5071753;28;20043;-68
2024/03/29 05:37:05;;;;;;;11.73;2.70;;;13.50;96.70;;;;;;5087834;28;20393;-71
2024/03/29 05:39:34;;;;;;;16.33;3.55;;;13.50;96.70;;;;;;5085565;28;20059;-71
2024/03/29 05:42:01;;;;;;;15.02;4.13;;;13.50;96.70;;;;;;5088565;28;20099;-70
2024/03/29 05:44:29;;;;;;;9.65;3.08;;;13.50;96.70;;;;;;5088447;28;20047;-71
2024/03/29 05:46:58;;;;;;;14.77;3.20;;;13.50;96.70;;;;;;5087366;28;20548;-69
2024/03/29 05:49:27;;;;;;;11.73;3.13;;;13.60;96.70;;;;;;5077823;28;20040;-70
2024/03/29 05:51:55;;;;;;;13.73;3.53;;;13.60;96.70;;;;;;5088147;28;20036;-70
2024/03/29 05:54:22;;;;;;;13.13;3.50;;;13.60;96.70;;;;;;5086559;28;20213;-70
2024/03/29 05:56:51;;;;;;;10.48;3.20;;;13.60;96.70;;;;;;5088937;28;20047;-70
2024/03/29 05:59:19;;;;;;;14.38;3.28;;;13.70;96.70;;;;;;5088334;28;20090;-70
2024/03/29 06:01:46;;;;;;;11.23;3.03;;;13.70;96.70;;;;;;5071879;28;20381;-70
2024/03/29 06:04:19;;;;;;;13.35;4.22;;;13.70;96.70;;;;;;5086675;28;20557;-70
2024/03/29 06:06:47;;;;;;;10.90;3.30;;;13.80;96.70;;;;;;5088385;28;20135;-71
2024/03/29 06:09:15;;;;;;;15.27;3.03;;;13.80;96.70;;;;;;5087751;28;20910;-71
2024/03/29 06:11:43;;;;;;;11.15;3.25;;;13.90;96.70;;;;;;5087818;28;20050;-70
2024/03/29 06:19:28;;;;;;;11.38;3.17;;;14.00;96.70;;;;;;5078941;28;20052;-70
2024/03/29 06:21:55;;;;;;;9.57;2.83;;;14.00;96.70;;;;;;5087307;28;20051;-70
2024/03/29 06:24:25;;;;;;;11.60;3.20;;;14.00;96.70;;;;;;5086014;28;20039;-70
2024/03/29 06:26:52;;;;;;;9.05;3.35;;;14.10;96.70;;;;;;5087005;28;20058;-70
2024/03/29 06:29:21;;;;;;;9.57;3.55;;;14.10;96.70;;;;;;5082925;28;20044;-68
2024/03/29 06:31:48;;;;;;;9.93;3.22;;;14.20;96.70;;;;;;5063694;28;20051;-68
2024/03/29 06:34:16;;;;;;;11.50;3.10;;;14.20;96.70;;;;;;5051883;28;20627;-69
2024/03/29 06:36:46;;;;;;;15.93;3.42;;;14.30;96.70;;;;;;5057498;28;20109;-68
2024/03/29 06:39:13;;;;;;;15.25;3.50;;;14.30;96.70;;;;;;5065656;28;20052;-68
2024/03/29 06:41:43;;;;;;;13.30;3.53;;;14.40;96.70;;;;;;5057276;28;20181;-67
2024/03/29 06:44:10;;;;;;;17.17;3.80;;;14.40;96.70;;;;;;5074696;28;20048;-67
2024/03/29 06:46:38;;;;;;;13.13;3.22;;;14.50;96.70;;;;;;5062214;28;20045;-68
2024/03/29 06:49:06;;;;;;;14.45;3.88;;;14.60;96.70;;;;;;5073777;28;20699;-68
2024/03/29 06:51:33;;;;;;;15.27;3.33;;;14.60;96.70;;;;;;5078192;28;20048;-67
2024/03/29 06:54:03;;;;;;;15.80;4.28;;;14.70;96.70;;;;;;5066353;28;20497;-67
2024/03/29 06:56:30;;;;;;;11.65;4.03;;;14.80;96.70;;;;;;5063251;28;20043;-68
2024/03/29 06:58:58;;;;;;;18.95;4.13;;;14.80;96.70;;;;;;5070460;28;20060;-68
2024/03/29 07:01:25;;;;;;;10.70;3.30;;;14.80;96.70;;;;;;5048962;28;20040;-66
2024/03/29 07:03:54;;;;;;;13.25;2.83;;;14.80;96.70;;;;;;5056973;28;20382;-67
2024/03/29 07:06:22;;;;;;;16.92;4.25;;;14.90;96.70;;;;;;5074237;28;20549;-67
2024/03/29 07:08:50;;;;;;;17.60;5.18;;;15.00;96.70;;;;;;5066494;28;20052;-68
2024/03/29 07:11:19;;;;;;;17.25;4.05;;;15.10;96.70;;;;;;5072597;28;20068;-68
2024/03/29 07:13:47;;;;;;;11.48;3.08;;;15.20;96.70;;;;;;5065481;28;20106;-68
2024/03/29 07:16:14;;;;;;;14.68;3.53;;;15.20;96.70;;;;;;5064488;28;20044;-67
2024/03/29 07:18:42;;;;;;;18.17;4.22;;;15.30;96.70;;;;;;5073538;28;20144;-67
2024/03/29 07:21:09;;;;;;;16.40;3.90;;;15.40;96.70;;;;;;5065632;28;20048;-68
2024/03/29 07:23:36;;;;;;;13.80;3.53;;;15.50;96.70;;;;;;5064827;28;20053;-68
2024/03/29 07:26:07;;;;;;;15.75;4.30;;;15.60;96.70;;;;;;5073771;28;20094;-68
2024/03/29 07:28:36;;;;;;;14.05;3.83;;;15.70;96.70;;;;;;5071483;28;20124;-68
2024/03/29 07:31:07;;;;;;;13.73;3.50;;;15.70;96.70;;;;;;5067982;28;20058;-67
2024/03/29 07:33:35;;;;;;;17.52;4.50;;;15.80;96.70;;;;;;5032482;28;20045;-68
2024/03/29 07:36:04;;;;;;;16.02;3.83;;;15.90;96.70;;;;;;5061352;28;20492;-67
2024/03/29 07:38:41;;;;;;;13.98;4.03;;;16.00;96.70;;;;;;5066894;28;20055;-68
2024/03/29 07:41:09;;;;;;;11.27;2.92;;;16.00;96.70;;;;;;5071513;28;20044;-68
2024/03/29 07:43:52;;;;;;;18.20;4.22;;;16.10;96.70;;;;;;5081234;28;20123;-68
2024/03/29 07:46:21;;;;;;;14.27;4.07;;;16.20;96.70;;;;;;5073547;28;20054;-68
2024/03/29 07:48:48;;;;;;;12.73;3.97;;;16.30;96.70;;;;;;5077962;28;20036;-68
2024/03/29 07:51:16;;;;;;;15.77;3.58;;;16.30;96.70;;;;;;5058312;28;20105;-69
2024/03/29 07:53:43;;;;;;;13.52;3.60;;;16.40;96.70;;;;;;5063032;28;20111;-69
2024/03/29 07:56:10;;;;;;;13.13;4.22;;;16.50;96.70;;;;;;5081332;28;20048;-69
2024/03/29 07:58:37;;;;;;;13.95;3.83;;;16.50;96.70;;;;;;5078807;28;20040;-69
2024/03/29 08:01:07;;;;;;;13.13;3.45;;;16.50;96.70;;;;;;5051280;28;20098;-69
2024/03/29 08:03:34;;;;;;;15.05;3.13;;;16.50;96.70;;;;;;5084075;28;20099;-69
2024/03/29 08:06:07;;;;;;;13.40;3.67;;;16.60;96.70;;;;;;5052029;28;20062;-69
2024/03/29 08:08:35;;;;;;;11.77;3.47;;;16.70;96.70;;;;;;5057308;28;20508;-67
2024/03/29 08:11:03;;;;;;;15.93;3.13;;;16.80;96.70;;;;;;5071542;28;20161;-69
2024/03/29 08:13:31;;;;;;;20.73;3.85;;;16.90;96.70;;;;;;5059203;28;20064;-69
2024/03/29 08:15:59;;;;;;;10.85;2.88;;;16.90;96.70;;;;;;5070367;28;20068;-68
2024/03/29 08:18:29;;;;;;;10.30;2.50;;;17.00;96.70;;;;;;5066118;28;21107;-69
2024/03/29 08:20:59;;;;;;;10.88;2.90;;;17.10;96.70;;;;;;5073866;28;20048;-68
2024/03/29 08:23:26;;;;;;;8.98;2.40;;;17.20;96.70;;;;;;5067852;28;20051;-68
2024/03/29 08:25:55;;;;;;;13.57;3.03;;;17.30;96.70;;;;;;5074847;28;20124;-67
2024/03/29 08:28:23;;;;;;;12.98;2.83;;;17.40;96.70;;;;;;5058356;28;20067;-68
2024/03/29 08:31:01;;;;;;;13.20;2.88;;;17.30;96.70;;;;;;5041831;28;20135;-67
2024/03/29 08:33:33;;;;;;;15.73;3.78;;;17.40;96.70;;;;;;5066906;28;20072;-68
2024/03/29 08:36:01;;;;;;;17.52;2.80;;;17.50;96.70;;;;;;5065968;28;20127;-68
2024/03/29 08:38:29;;;;;;;16.75;2.97;;;17.70;96.70;;;;;;5062382;28;20472;-68
2024/03/29 08:40:57;;;;;;;14.98;2.63;;;17.80;96.70;;;;;;5066458;28;20085;-68
2024/03/29 08:43:24;;;;;;;15.05;3.55;;;18.00;96.70;;;;;;5066725;28;21191;-69
2024/03/29 08:45:52;;;;;;;18.98;3.30;;;18.10;96.70;;;;;;5050309;28;20106;-68
2024/03/29 08:48:19;;;;;;;15.50;3.78;;;18.30;96.70;;;;;;5066491;28;20059;-68
2024/03/29 08:50:48;;;;;;;16.42;3.63;;;18.40;96.70;;;;;;5066210;28;20045;-69
2024/03/29 08:53:16;;;;;;;21.88;3.67;;;18.50;96.70;;;;;;5064222;28;20044;-67
2024/03/29 08:55:46;;;;;;;21.75;4.72;;;18.70;96.70;;;;;;5066320;28;20048;-68
2024/03/29 08:58:14;;;;;;;22.58;4.00;;;18.80;96.70;;;;;;5066393;28;20062;-68
2024/03/29 09:00:41;;;;;;;17.08;3.33;;;18.80;96.70;;;;;;5066813;28;20052;-68
2024/03/29 09:03:09;;;;;;;25.25;3.63;;;18.80;96.70;;;;;;5066342;28;20045;-68
2024/03/29 09:05:36;;;;;;;27.80;5.15;;;18.90;96.70;;;;;;5066579;28;20040;-68
2024/03/29 09:08:06;;;;;;;19.55;3.70;;;19.00;96.70;;;;;;5066213;28;20789;-68
2024/03/29 09:10:33;;;;;;;25.15;4.40;;;19.00;96.70;;;;;;5047459;28;20056;-69
2024/03/29 09:13:00;;;;;;;23.67;3.80;;;19.00;96.70;;;;;;5049282;28;20048;-68
2024/03/29 09:15:28;;;;;;;28.35;3.72;;;19.20;96.70;;;;;;5056958;28;20032;-68
2024/03/29 09:17:55;;;;;;;28.10;4.50;;;19.40;96.70;;;;;;5062037;28;20055;-68
2024/03/29 09:20:23;;;;;;;26.90;4.13;;;19.40;96.70;;;;;;5064862;28;20098;-68
2024/03/29 09:22:52;;;;;;;27.17;4.15;;;19.20;96.70;;;;;;5065098;28;20056;-68
2024/03/29 09:25:22;;;;;;;28.13;4.40;;;19.20;96.70;;;;;;5065346;28;20125;-69
2024/03/29 09:27:49;;;;;;;24.48;4.25;;;19.30;96.70;;;;;;5062498;28;20582;-67
2024/03/29 09:30:19;;;;;;;26.00;4.72;;;19.40;96.70;;;;;;5061593;28;20076;-68
2024/03/29 09:32:49;;;;;;;26.63;4.90;;;19.50;96.70;;;;;;5055475;28;20053;-68
2024/03/29 09:35:17;;;;;;;29.30;4.68;;;19.60;96.70;;;;;;5063624;28;20089;-68
2024/03/29 09:37:44;;;;;;;26.20;4.57;;;19.80;96.70;;;;;;5065837;28;20097;-68
2024/03/29 09:40:13;;;;;;;28.55;4.45;;;20.00;96.70;;;;;;5064638;28;20135;-68
2024/03/29 09:42:45;;;;;;;22.63;4.40;;;20.10;96.70;;;;;;5045884;28;20106;-69
2024/03/29 09:45:13;;;;;;;26.38;4.45;;;20.10;96.70;;;;;;5062997;28;20505;-68
2024/03/29 09:47:43;;;;;;;24.23;4.00;;;20.20;96.70;;;;;;5048206;28;20479;-68
2024/03/29 09:50:12;;;;;;;26.02;4.10;;;20.20;96.70;;;;;;5030701;28;20048;-68
2024/03/29 09:52:42;;;;;;;25.85;3.67;;;20.20;96.70;;;;;;5064677;28;20118;-68
2024/03/29 09:55:10;;;;;;;23.98;4.75;;;20.20;96.70;;;;;;5064041;28;20456;-68
2024/03/29 09:57:37;;;;;;;26.85;4.95;;;20.30;96.70;;;;;;5064967;28;20044;-68
2024/03/29 10:00:09;;;;;;;27.38;4.35;;;20.40;96.70;;;;;;5064661;28;20672;-68
2024/03/29 10:02:37;;;;;;;25.17;4.53;;;20.50;96.70;;;;;;5063742;28;20046;-68
2024/03/29 10:05:08;;;;;;;28.23;4.28;;;20.60;96.70;;;;;;5063922;28;20045;-68
2024/03/29 10:07:37;;;;;;;28.88;4.60;;;20.60;96.70;;;;;;5048169;28;20047;-69
2024/03/29 10:10:07;;;;;;;30.10;4.35;;;20.70;96.70;;;;;;5048971;28;20075;-69
2024/03/29 10:12:34;;;;;;;32.15;5.07;;;20.70;96.70;;;;;;5047778;28;20378;-69
2024/03/29 10:15:11;;;;;;;29.15;4.95;;;20.70;96.70;;;;;;5047642;28;20159;-68
2024/03/29 10:17:38;;;;;;;32.17;5.03;;;20.70;96.70;;;;;;5058698;28;20037;-67
2024/03/29 10:20:06;;;;;;;30.65;4.88;;;20.70;96.70;;;;;;5047299;28;20055;-69
2024/03/29 10:22:40;;;;;;;37.53;5.07;;;20.60;96.70;;;;;;5064366;28;20106;-68
2024/03/29 10:25:08;;;;;;;26.42;4.38;;;20.50;96.70;;;;;;5064189;28;20051;-69
2024/03/29 10:27:36;;;;;;;24.42;4.82;;;20.50;96.70;;;;;;5064491;28;20048;-68
2024/03/29 10:30:08;;;;;;;29.48;4.65;;;20.60;96.70;;;;;;5063814;28;20048;-68
2024/03/29 10:32:39;;;;;;;30.77;4.38;;;20.80;96.70;;;;;;5062364;28;20029;-69
2024/03/29 10:35:08;;;;;;;36.30;4.30;;;21.00;96.70;;;;;;5063156;28;20535;-69
2024/03/29 10:37:40;;;;;;;34.33;5.45;;;21.20;96.70;;;;;;5063942;28;20128;-68
2024/03/29 10:40:09;;;;;;;33.30;5.18;;;21.20;96.70;;;;;;5048366;28;20095;-68
2024/03/29 10:42:38;;;;;;;26.77;4.85;;;21.10;96.70;;;;;;5065050;28;20071;-68
2024/03/29 10:45:09;;;;;;;40.22;4.60;;;21.10;96.70;;;;;;5063044;28;20063;-68
2024/03/29 10:47:37;;;;;;;33.67;5.18;;;20.90;96.70;;;;;;5064134;28;20037;-68
2024/03/29 10:50:05;;;;;;;34.28;5.68;;;21.00;96.70;;;;;;5063838;28;20048;-68
2024/03/29 10:52:33;;;;;;;27.13;4.22;;;21.00;96.70;;;;;;5045164;28;20053;-68
2024/03/29 10:55:01;;;;;;;28.73;4.47;;;21.00;96.70;;;;;;5064715;28;20147;-68
2024/03/29 10:57:29;;;;;;;26.83;4.03;;;21.00;96.70;;;;;;5063960;28;20044;-68
2024/03/29 11:00:06;;;;;;;25.55;4.07;;;21.00;96.70;;;;;;5046974;28;20056;-69
2024/03/29 11:02:47;;;;;;;24.33;3.90;;;21.10;96.70;;;;;;5064006;28;20570;-68
2024/03/29 11:05:16;;;;;;;24.20;3.92;;;21.00;96.70;;;;;;5064222;28;20044;-68
2024/03/29 11:07:45;;;;;;;22.27;4.10;;;21.10;96.70;;;;;;5064430;28;20063;-68
2024/03/29 11:10:20;;;;;;;22.33;4.45;;;21.10;96.70;;;;;;5045218;28;20097;-68
2024/03/29 11:13:03;;;;;;;23.13;3.47;;;21.10;96.70;;;;;;5064359;28;20036;-68
2024/03/29 11:15:33;;;;;;;21.00;4.65;;;20.90;96.70;;;;;;5047103;28;20052;-68
2024/03/29 11:18:06;;;;;;;23.60;3.67;;;20.70;96.70;;;;;;5048966;28;20056;-69
2024/03/29 11:20:34;;;;;;;21.23;3.95;;;20.60;96.70;;;;;;5034895;28;20056;-66
2024/03/29 11:23:09;;;;;;;24.45;4.35;;;20.60;96.70;;;;;;5067524;28;20079;-68
2024/03/29 11:25:44;;;;;;;25.58;3.58;;;20.50;96.70;;;;;;5066331;28;20063;-68
2024/03/29 11:28:15;;;;;;;28.00;4.65;;;20.60;96.70;;;;;;5065727;28;20052;-69
2024/03/29 11:30:45;;;;;;;24.50;3.88;;;20.70;96.70;;;;;;5068141;28;20638;-68
2024/03/29 11:33:31;;;;;;;19.85;4.07;;;20.90;96.70;;;;;;5067168;28;20052;-68
2024/03/29 11:36:01;;;;;;;30.38;5.22;;;20.90;96.70;;;;;;5051497;28;20049;-68
2024/03/29 11:38:34;;;;;;;20.65;3.88;;;21.10;96.70;;;;;;5053391;28;20048;-67
2024/03/29 11:41:05;;;;;;;24.23;4.28;;;21.20;96.70;;;;;;5051171;28;20063;-68
2024/03/29 11:43:35;;;;;;;27.20;4.45;;;21.20;96.70;;;;;;5042718;28;20107;-68
2024/03/29 11:46:07;;;;;;;21.40;3.55;;;21.10;96.70;;;;;;5067558;28;20090;-68
2024/03/29 11:48:37;;;;;;;23.63;4.50;;;21.10;96.70;;;;;;5067280;28;20562;-68
2024/03/29 11:51:06;;;;;;;28.70;4.40;;;21.00;96.70;;;;;;5067891;28;20067;-68
2024/03/29 11:53:35;;;;;;;24.45;3.70;;;20.90;96.70;;;;;;5066926;28;20094;-68
2024/03/29 11:56:04;;;;;;;28.88;3.95;;;20.80;96.70;;;;;;5067753;28;20062;-68
2024/03/29 11:58:33;;;;;;;27.65;4.03;;;21.00;96.70;;;;;;5066779;28;20048;-68
2024/03/29 12:01:01;;;;;;;26.48;4.68;;;21.00;96.70;;;;;;5065215;28;20048;-68
2024/03/29 12:03:33;;;;;;;31.02;4.95;;;21.10;96.70;;;;;;5067323;28;20143;-68
2024/03/29 12:06:05;;;;;;;31.20;5.00;;;21.30;96.70;;;;;;5066648;28;20044;-67
2024/03/29 12:08:34;;;;;;;30.15;5.00;;;21.50;96.70;;;;;;5060744;28;20049;-68
2024/03/29 12:11:02;;;;;;;29.60;4.95;;;21.60;96.70;;;;;;5067336;28;20065;-68
2024/03/29 12:13:31;;;;;;;24.73;4.53;;;21.90;96.70;;;;;;5029257;28;20127;-68
2024/03/29 12:16:03;;;;;;;27.65;4.90;;;22.10;96.70;;;;;;5050994;28;20091;-66
2024/03/29 12:18:32;;;;;;;25.83;4.40;;;22.40;96.70;;;;;;5064036;28;20071;-68
2024/03/29 12:21:00;;;;;;;29.42;5.05;;;22.50;96.70;;;;;;5050504;28;20048;-67
2024/03/29 12:23:30;;;;;;;22.00;4.45;;;22.60;96.70;;;;;;5066339;28;20607;-67
2024/03/29 12:25:58;;;;;;;34.00;5.30;;;22.70;96.70;;;;;;5066501;28;20055;-68
2024/03/29 12:28:27;;;;;;;23.35;3.85;;;22.60;96.70;;;;;;5058748;28;20067;-68
2024/03/29 12:30:56;;;;;;;24.65;4.78;;;22.60;96.70;;;;;;5076755;28;20052;-68
2024/03/29 12:33:25;;;;;;;29.23;4.25;;;22.30;96.70;;;;;;5067376;28;20055;-68
2024/03/29 12:35:54;;;;;;;31.77;6.05;;;22.20;96.70;;;;;;5069536;28;20112;-68
2024/03/29 12:38:22;;;;;;;28.23;4.97;;;22.20;96.70;;;;;;5070687;28;20096;-68
2024/03/29 12:40:55;;;;;;;23.52;5.15;;;22.30;96.70;;;;;;5068070;28;20386;-68
2024/03/29 12:43:24;;;;;;;27.63;5.18;;;22.30;96.70;;;;;;5067452;28;20094;-68
2024/03/29 12:45:53;;;;;;;36.67;6.78;;;22.40;96.70;;;;;;5058720;28;20040;-68
2024/03/29 12:48:23;;;;;;;33.25;4.93;;;22.50;96.70;;;;;;5074871;28;20048;-68
2024/03/29 12:50:52;;;;;;;42.03;7.32;;;22.60;96.70;;;;;;5072445;28;20136;-68
2024/03/29 12:53:21;;;;;;;39.80;5.78;;;22.70;96.70;;;;;;5050562;28;20060;-68